createdAt,value
2018-05-31T00:00:09.511Z,18.70
2018-05-31T00:02:38.510Z,18.60
2018-05-31T00:05:07.519Z,18.60
2018-05-31T00:07:36.513Z,18.60
2018-05-31T00:10:04.753Z,18.50
2018-05-31T00:12:32.986Z,18.60
2018-05-31T00:15:01.230Z,18.50
2018-05-31T00:17:30.221Z,18.50
2018-05-31T00:19:58.486Z,18.40
2018-05-31T00:22:27.495Z,18.50
2018-05-31T00:24:56.522Z,18.50
2018-05-31T00:27:24.756Z,18.40
2018-05-31T00:29:53.011Z,18.40
2018-05-31T00:32:21.251Z,18.40
2018-05-31T00:34:50.269Z,18.50
2018-05-31T00:37:19.271Z,18.50
2018-05-31T00:39:48.309Z,18.50
2018-05-31T00:42:16.548Z,18.40
2018-05-31T00:44:44.803Z,18.50
2018-05-31T00:47:13.021Z,18.50
2018-05-31T00:49:42.023Z,18.50
2018-05-31T00:52:11.102Z,18.50
2018-05-31T00:54:39.339Z,18.50
2018-05-31T00:57:07.591Z,18.60
2018-05-31T00:59:35.834Z,18.60
2018-05-31T01:02:04.899Z,18.60
2018-05-31T01:04:33.147Z,18.60
2018-05-31T01:07:01.418Z,18.60
2018-05-31T01:09:30.421Z,18.60
2018-05-31T01:11:59.457Z,18.60
2018-05-31T01:14:28.427Z,18.60
2018-05-31T01:16:57.485Z,18.60
2018-05-31T01:19:25.731Z,18.60
2018-05-31T01:21:54.752Z,18.40
2018-05-31T01:24:23.000Z,18.30
2018-05-31T01:26:51.263Z,18.30
2018-05-31T01:29:19.503Z,18.30
2018-05-31T01:31:48.488Z,18.20
2018-05-31T01:34:16.724Z,18.20
2018-05-31T01:36:44.980Z,18.10
2018-05-31T01:39:18.170Z,18.10
2018-05-31T01:41:46.423Z,18.10
2018-05-31T01:44:14.670Z,18.00
2018-05-31T01:46:43.692Z,17.90
2018-05-31T01:49:11.930Z,17.80
2018-05-31T01:51:40.183Z,17.90
2018-05-31T01:54:08.437Z,17.80
2018-05-31T01:56:37.498Z,17.70
2018-05-31T01:59:05.728Z,17.60
2018-05-31T02:01:33.990Z,17.60
2018-05-31T02:04:02.215Z,17.60
2018-05-31T02:06:31.243Z,17.50
2018-05-31T02:08:59.504Z,17.50
2018-05-31T02:11:27.734Z,17.60
2018-05-31T02:13:56.023Z,17.60
2018-05-31T02:16:24.260Z,17.60
2018-05-31T02:18:52.523Z,17.50
2018-05-31T02:21:20.721Z,17.60
2018-05-31T02:23:49.767Z,17.50
2018-05-31T02:26:18.767Z,17.50
2018-05-31T02:28:47.792Z,17.50
2018-05-31T02:31:16.031Z,17.50
2018-05-31T02:33:44.297Z,17.50
2018-05-31T02:36:12.508Z,17.50
2018-05-31T02:38:41.558Z,17.50
2018-05-31T02:41:09.810Z,17.40
2018-05-31T02:43:38.115Z,17.40
2018-05-31T02:46:07.091Z,17.30
2018-05-31T02:48:36.112Z,17.20
2018-05-31T02:51:05.139Z,17.20
2018-05-31T02:53:34.154Z,17.10
2018-05-31T02:56:03.164Z,17.10
2018-05-31T02:58:32.190Z,17.00
2018-05-31T03:01:00.431Z,17.00
2018-05-31T03:05:58.252Z,16.90
2018-05-31T03:08:26.563Z,17.00
2018-05-31T03:10:54.812Z,16.90
2018-05-31T03:13:23.072Z,16.90
2018-05-31T03:15:51.273Z,16.90
2018-05-31T03:18:20.318Z,16.80
2018-05-31T03:20:49.331Z,16.80
2018-05-31T03:23:18.313Z,16.80
2018-05-31T03:25:46.559Z,16.80
2018-05-31T03:28:14.831Z,16.80
2018-05-31T03:30:43.044Z,16.80
2018-05-31T03:33:11.318Z,16.80
2018-05-31T03:35:39.578Z,16.80
2018-05-31T03:38:08.585Z,16.80
2018-05-31T03:40:37.612Z,16.80
2018-05-31T03:43:05.828Z,16.70
2018-05-31T03:45:34.123Z,16.80
2018-05-31T03:48:02.399Z,16.90
2018-05-31T03:50:30.646Z,16.90
2018-05-31T03:52:59.642Z,17.00
2018-05-31T03:55:28.666Z,17.10
2018-05-31T03:57:56.910Z,17.00
2018-05-31T04:00:25.175Z,17.10
2018-05-31T04:02:53.419Z,17.20
2018-05-31T04:05:21.671Z,17.30
2018-05-31T04:07:49.922Z,17.30
2018-05-31T04:10:18.172Z,17.40
2018-05-31T04:12:46.370Z,17.50
2018-05-31T04:15:14.663Z,17.60
2018-05-31T04:17:43.686Z,17.80
2018-05-31T04:20:12.699Z,18.00
2018-05-31T04:22:40.949Z,17.90
2018-05-31T04:25:09.203Z,18.10
2018-05-31T04:27:37.443Z,18.20
2018-05-31T04:30:06.470Z,18.40
2018-05-31T04:32:34.711Z,18.30
2018-05-31T04:35:02.960Z,18.50
2018-05-31T04:37:31.191Z,18.60
2018-05-31T04:39:59.460Z,18.70
2018-05-31T04:42:27.705Z,18.80
2018-05-31T04:44:56.724Z,19.00
2018-05-31T04:47:24.963Z,19.00
2018-05-31T04:49:53.227Z,19.50
2018-05-31T04:52:21.463Z,20.10
2018-05-31T04:54:50.462Z,21.90
2018-05-31T04:57:19.482Z,23.20
2018-05-31T04:59:48.580Z,24.60
2018-05-31T05:02:17.607Z,26.00
2018-05-31T05:04:45.848Z,25.90
2018-05-31T05:07:14.101Z,27.00
2018-05-31T05:09:42.339Z,27.70
2018-05-31T05:12:10.586Z,28.30
2018-05-31T05:14:38.818Z,28.80
2018-05-31T05:17:07.075Z,29.10
2018-05-31T05:19:35.315Z,29.00
2018-05-31T05:22:04.331Z,29.20
2018-05-31T05:24:32.566Z,29.10
2018-05-31T05:27:00.863Z,29.30
2018-05-31T05:29:29.036Z,29.70
2018-05-31T05:31:57.303Z,30.40
2018-05-31T05:34:25.543Z,30.50
2018-05-31T05:36:53.796Z,30.30
2018-05-31T05:39:22.040Z,30.50
2018-05-31T05:41:50.295Z,30.50
2018-05-31T05:44:18.535Z,30.60
2018-05-31T05:46:46.799Z,30.60
2018-05-31T05:49:15.803Z,31.00
2018-05-31T05:51:44.829Z,31.30
2018-05-31T05:54:13.135Z,31.30
2018-05-31T05:56:41.423Z,31.80
2018-05-31T05:59:09.723Z,31.90
2018-05-31T06:01:37.975Z,31.80
2018-05-31T06:04:06.979Z,32.00
2018-05-31T06:06:36.014Z,32.10
2018-05-31T06:09:04.247Z,32.00
2018-05-31T06:11:32.519Z,32.00
2018-05-31T06:14:00.776Z,32.10
2018-05-31T06:16:29.090Z,32.70
2018-05-31T06:18:57.625Z,32.80
2018-05-31T06:21:26.339Z,32.80
2018-05-31T06:23:55.368Z,31.40
2018-05-31T06:26:23.677Z,31.30
2018-05-31T06:28:51.867Z,31.70
2018-05-31T06:31:20.079Z,31.80
2018-05-31T06:33:49.147Z,31.60
2018-05-31T06:36:17.398Z,31.60
2018-05-31T06:38:46.423Z,32.60
2018-05-31T06:41:15.431Z,32.70
2018-05-31T06:43:43.703Z,32.70
2018-05-31T06:46:12.689Z,31.70
2018-05-31T06:48:41.775Z,30.50
2018-05-31T06:51:10.012Z,30.40
2018-05-31T06:53:39.031Z,28.20
2018-05-31T06:56:07.271Z,28.00
2018-05-31T06:58:35.528Z,27.40
2018-05-31T07:01:03.760Z,26.90
2018-05-31T07:03:32.028Z,26.00
2018-05-31T07:06:00.267Z,25.70
2018-05-31T07:08:29.288Z,25.30
2018-05-31T07:10:58.300Z,25.20
2018-05-31T07:13:26.567Z,25.20
2018-05-31T07:15:55.625Z,25.20
2018-05-31T07:18:23.842Z,25.10
2018-05-31T07:20:52.069Z,24.90
2018-05-31T07:23:20.373Z,24.60
2018-05-31T07:25:49.391Z,24.50
2018-05-31T07:28:17.641Z,24.50
2018-05-31T07:30:46.649Z,24.60
2018-05-31T07:33:15.665Z,24.50
2018-05-31T07:35:44.665Z,24.50
2018-05-31T07:38:12.924Z,24.50
2018-05-31T07:40:41.895Z,24.50
2018-05-31T07:43:10.183Z,24.40
2018-05-31T07:45:38.419Z,24.50
2018-05-31T07:48:07.443Z,24.70
2018-05-31T07:50:35.679Z,24.70
2018-05-31T07:53:03.940Z,25.00
2018-05-31T07:55:32.183Z,25.20
2018-05-31T07:58:00.424Z,25.50
2018-05-31T08:00:28.666Z,25.60
2018-05-31T08:02:57.675Z,25.50
2018-05-31T08:05:26.714Z,25.60
2018-05-31T08:07:54.968Z,25.50
2018-05-31T08:10:23.996Z,25.40
2018-05-31T08:12:52.244Z,25.30
2018-05-31T08:15:20.515Z,25.40
2018-05-31T08:17:48.763Z,25.50
2018-05-31T08:20:17.011Z,25.70
2018-05-31T08:22:45.250Z,25.70
2018-05-31T08:25:13.504Z,25.70
2018-05-31T08:27:42.360Z,25.70
2018-05-31T08:30:10.604Z,25.90
2018-05-31T08:32:39.619Z,26.00
2018-05-31T08:35:08.643Z,26.10
2018-05-31T08:37:36.916Z,26.00
2018-05-31T08:40:05.962Z,26.10
2018-05-31T08:42:34.231Z,26.10
2018-05-31T08:45:02.508Z,26.30
2018-05-31T08:47:30.781Z,26.40
2018-05-31T08:49:59.047Z,26.10
2018-05-31T08:52:27.344Z,26.10
2018-05-31T08:54:55.671Z,26.10
2018-05-31T08:57:24.692Z,26.10
2018-05-31T08:59:53.703Z,26.30
2018-05-31T09:02:21.978Z,26.30
2018-05-31T09:04:50.265Z,26.40
2018-05-31T09:07:18.507Z,26.70
2018-05-31T09:09:46.775Z,27.00
2018-05-31T09:12:15.028Z,27.30
2018-05-31T09:14:44.791Z,27.10
2018-05-31T09:17:13.049Z,27.10
2018-05-31T09:19:41.295Z,27.10
2018-05-31T09:22:09.607Z,27.10
2018-05-31T09:24:38.665Z,27.20
2018-05-31T09:27:06.954Z,27.10
2018-05-31T09:29:35.221Z,27.30
2018-05-31T09:32:03.483Z,27.30
2018-05-31T09:34:32.532Z,27.40
2018-05-31T09:37:00.776Z,27.40
2018-05-31T09:39:29.798Z,27.40
2018-05-31T09:41:58.079Z,27.40
2018-05-31T09:44:26.339Z,27.50
2018-05-31T09:46:54.638Z,27.60
2018-05-31T09:49:23.753Z,27.60
2018-05-31T09:51:52.787Z,27.70
2018-05-31T09:54:21.034Z,27.70
2018-05-31T09:56:50.093Z,27.30
2018-05-31T09:59:18.349Z,27.30
2018-05-31T10:01:47.400Z,26.90
2018-05-31T10:04:15.668Z,26.80
2018-05-31T10:06:43.936Z,26.90
2018-05-31T10:09:12.447Z,27.10
2018-05-31T10:11:40.669Z,27.10
2018-05-31T10:14:09.731Z,27.40
2018-05-31T10:16:38.759Z,27.60
2018-05-31T10:19:06.977Z,27.50
2018-05-31T10:21:36.163Z,27.90
2018-05-31T10:24:04.413Z,27.90
2018-05-31T10:26:32.724Z,28.00
2018-05-31T10:29:01.017Z,28.00
2018-05-31T10:31:30.122Z,27.00
2018-05-31T10:33:59.148Z,26.60
2018-05-31T10:36:27.437Z,26.60
2018-05-31T10:38:55.799Z,26.60
2018-05-31T10:41:24.821Z,26.90
2018-05-31T10:43:53.091Z,26.90
2018-05-31T10:46:22.534Z,27.30
2018-05-31T10:48:52.229Z,27.40
2018-05-31T10:51:20.475Z,27.50
2018-05-31T10:53:49.561Z,27.70
2018-05-31T10:56:18.091Z,27.60
2018-05-31T10:58:46.364Z,27.30
2018-05-31T11:01:15.757Z,27.30
2018-05-31T11:03:44.054Z,27.30
2018-05-31T11:06:12.314Z,27.70
2018-05-31T11:08:41.942Z,28.20
2018-05-31T11:11:10.927Z,28.30
2018-05-31T11:13:40.054Z,28.20
2018-05-31T11:16:08.324Z,28.10
2018-05-31T11:18:37.371Z,28.50
2018-05-31T11:21:05.649Z,28.40
2018-05-31T11:23:33.979Z,28.50
2018-05-31T11:26:02.267Z,28.60
2018-05-31T11:28:30.535Z,28.50
2018-05-31T11:30:58.822Z,28.60
2018-05-31T11:33:27.097Z,28.60
2018-05-31T11:35:55.376Z,28.50
2018-05-31T11:38:23.635Z,28.70
2018-05-31T11:40:51.908Z,28.70
2018-05-31T11:43:20.183Z,28.60
2018-05-31T11:45:48.521Z,28.60
2018-05-31T11:48:16.844Z,28.70
2018-05-31T11:50:45.067Z,28.90
2018-05-31T11:53:14.127Z,28.80
2018-05-31T11:55:42.391Z,28.80
2018-05-31T11:58:11.471Z,28.90
2018-05-31T12:00:39.739Z,28.90
2018-05-31T12:03:08.007Z,29.10
2018-05-31T12:05:36.299Z,29.10
2018-05-31T12:08:04.545Z,29.10
2018-05-31T12:10:32.837Z,29.20
2018-05-31T12:13:01.096Z,29.10
2018-05-31T12:15:29.475Z,29.20
2018-05-31T12:17:58.570Z,29.30
2018-05-31T12:20:26.872Z,29.20
2018-05-31T12:22:55.156Z,29.40
2018-05-31T12:25:23.427Z,29.50
2018-05-31T12:27:51.699Z,29.20
2018-05-31T12:30:20.812Z,29.10
2018-05-31T12:32:49.812Z,29.30
2018-05-31T12:35:18.115Z,29.20
2018-05-31T12:37:46.453Z,29.20
2018-05-31T12:40:14.759Z,29.30
2018-05-31T12:42:43.020Z,29.40
2018-05-31T12:45:11.231Z,29.50
2018-05-31T12:47:39.528Z,29.60
2018-05-31T12:50:08.572Z,29.80
2018-05-31T12:52:36.870Z,29.80
2018-05-31T12:55:05.174Z,29.50
2018-05-31T12:57:33.448Z,29.60
2018-05-31T13:00:01.721Z,29.70
2018-05-31T13:02:29.997Z,29.70
2018-05-31T13:04:59.031Z,29.80
2018-05-31T13:07:27.308Z,29.80
2018-05-31T13:09:55.594Z,29.70
2018-05-31T13:12:23.861Z,29.40
2018-05-31T13:14:52.963Z,28.30
2018-05-31T13:17:21.238Z,28.30
2018-05-31T13:19:49.545Z,27.80
2018-05-31T13:22:17.820Z,27.50
2018-05-31T13:24:47.114Z,27.30
2018-05-31T13:27:15.383Z,27.00
2018-05-31T13:29:43.637Z,26.60
2018-05-31T13:32:12.678Z,26.20
2018-05-31T13:34:40.922Z,26.20
2018-05-31T13:37:09.167Z,25.90
2018-05-31T13:39:37.441Z,25.60
2018-05-31T13:42:05.667Z,25.40
2018-05-31T13:44:34.710Z,25.20
2018-05-31T13:47:03.805Z,25.00
2018-05-31T13:49:32.046Z,25.00
2018-05-31T13:52:00.335Z,24.80
2018-05-31T13:54:28.574Z,24.50
2018-05-31T13:56:56.864Z,24.40
2018-05-31T13:59:25.900Z,24.30
2018-05-31T14:01:55.697Z,24.10
2018-05-31T14:04:24.016Z,24.10
2018-05-31T14:06:52.271Z,24.00
2018-05-31T14:09:20.535Z,24.10
2018-05-31T14:11:48.761Z,24.00
2018-05-31T14:14:17.006Z,23.90
2018-05-31T14:16:46.036Z,23.80
2018-05-31T14:19:14.331Z,23.70
2018-05-31T14:21:42.595Z,23.80
2018-05-31T14:24:10.836Z,24.00
2018-05-31T14:26:39.102Z,24.30
2018-05-31T14:29:07.347Z,24.40
2018-05-31T14:31:35.636Z,24.50
2018-05-31T14:34:03.893Z,24.70
2018-05-31T14:36:32.147Z,24.90
2018-05-31T14:39:00.443Z,25.10
2018-05-31T14:41:28.674Z,25.40
2018-05-31T14:43:56.975Z,25.70
2018-05-31T14:46:25.230Z,25.50
2018-05-31T14:48:54.271Z,25.10
2018-05-31T14:51:22.464Z,25.10
2018-05-31T14:53:50.793Z,24.90
2018-05-31T14:56:19.080Z,24.70
2018-05-31T14:58:47.360Z,24.70
2018-05-31T15:01:15.570Z,24.60
2018-05-31T15:06:19.204Z,24.70
2018-05-31T15:08:47.504Z,24.90
2018-05-31T15:11:16.518Z,25.30
2018-05-31T15:13:45.542Z,25.40
2018-05-31T15:16:13.798Z,25.40
2018-05-31T15:18:42.093Z,25.50
2018-05-31T15:21:10.338Z,25.60
2018-05-31T15:23:38.616Z,25.50
2018-05-31T15:26:06.858Z,25.50
2018-05-31T15:28:36.651Z,25.90
2018-05-31T15:31:04.903Z,25.90
2018-05-31T15:33:33.159Z,26.20
2018-05-31T15:36:01.482Z,26.50
2018-05-31T15:38:29.707Z,26.70
2018-05-31T15:40:57.999Z,26.80
2018-05-31T15:43:26.362Z,27.00
2018-05-31T15:45:54.622Z,27.00
2018-05-31T15:48:24.011Z,27.00
2018-05-31T15:50:52.263Z,27.00
2018-05-31T15:53:20.566Z,26.80
2018-05-31T15:55:48.807Z,26.50
2018-05-31T15:58:17.079Z,26.40
2018-05-31T16:00:46.103Z,26.30
2018-05-31T16:03:14.358Z,26.20
2018-05-31T16:05:42.665Z,26.30
2018-05-31T16:08:10.914Z,26.40
2018-05-31T16:10:39.223Z,26.50
2018-05-31T16:13:07.491Z,26.50
2018-05-31T16:15:35.776Z,26.50
2018-05-31T16:18:04.784Z,26.30
2018-05-31T16:20:33.051Z,26.30
2018-05-31T16:23:01.316Z,26.10
2018-05-31T16:25:30.382Z,26.10
2018-05-31T16:27:58.891Z,26.10
2018-05-31T16:30:28.690Z,26.10
2018-05-31T16:32:56.970Z,26.10
2018-05-31T16:35:25.240Z,26.20
2018-05-31T16:37:53.506Z,26.10
2018-05-31T16:40:22.584Z,26.10
2018-05-31T16:42:50.908Z,26.10
2018-05-31T16:47:48.800Z,26.30
2018-05-31T16:50:17.077Z,26.50
2018-05-31T16:52:45.323Z,26.70
2018-05-31T16:55:13.651Z,26.80
2018-05-31T16:57:42.274Z,27.10
2018-05-31T17:00:11.315Z,27.60
2018-05-31T17:02:39.591Z,27.60
2018-05-31T17:05:07.880Z,28.00
2018-05-31T17:07:36.109Z,28.20
2018-05-31T17:10:05.197Z,28.40
2018-05-31T17:12:33.411Z,28.30
2018-05-31T17:15:02.480Z,28.90
2018-05-31T17:17:30.757Z,28.80
2018-05-31T17:19:59.780Z,28.70
2018-05-31T17:22:28.039Z,28.70
2018-05-31T17:24:56.331Z,28.30
2018-05-31T17:27:25.385Z,27.30
2018-05-31T17:29:53.681Z,27.20
2018-05-31T17:32:21.924Z,26.90
2018-05-31T17:34:50.270Z,26.60
2018-05-31T17:37:18.538Z,26.30
2018-05-31T17:39:46.811Z,26.10
2018-05-31T17:42:15.075Z,26.00
2018-05-31T17:44:44.506Z,25.40
2018-05-31T17:47:12.762Z,25.40
2018-05-31T17:49:41.033Z,25.30
2018-05-31T17:52:09.283Z,25.20
2018-05-31T17:54:37.576Z,25.10
2018-05-31T17:57:05.841Z,25.00
2018-05-31T17:59:34.887Z,24.70
2018-05-31T18:02:03.146Z,24.70
2018-05-31T18:04:31.386Z,24.60
2018-05-31T18:06:59.655Z,24.50
2018-05-31T18:09:27.963Z,24.40
2018-05-31T18:11:56.240Z,24.30
2018-05-31T18:14:25.390Z,25.30
2018-05-31T18:16:53.721Z,24.00
2018-05-31T18:19:22.073Z,24.00
2018-05-31T18:21:51.846Z,23.70
2018-05-31T18:24:20.070Z,23.70
2018-05-31T18:26:48.371Z,23.70
2018-05-31T18:31:46.264Z,23.40
2018-05-31T18:34:14.493Z,23.40
2018-05-31T18:36:44.431Z,23.20
2018-05-31T18:39:12.684Z,23.20
2018-05-31T18:41:42.456Z,23.20
2018-05-31T18:44:10.728Z,23.20
2018-05-31T18:46:38.991Z,23.20
2018-05-31T18:49:08.017Z,23.10
2018-05-31T18:51:37.072Z,23.10
2018-05-31T18:54:05.343Z,23.00
2018-05-31T18:56:33.609Z,23.00
2018-05-31T18:59:01.862Z,23.00
2018-05-31T19:01:30.211Z,22.90
2018-05-31T19:03:58.444Z,22.90
2018-05-31T19:06:26.727Z,22.80
2018-05-31T19:08:54.991Z,22.80
2018-05-31T19:11:23.277Z,22.70
2018-05-31T19:13:57.152Z,22.70
2018-05-31T19:16:26.197Z,22.60
2018-05-31T19:18:59.893Z,22.60
2018-05-31T19:21:28.178Z,22.60
2018-05-31T19:23:56.502Z,22.60
2018-05-31T19:26:24.773Z,22.60
2018-05-31T19:28:53.079Z,22.50
2018-05-31T19:31:21.367Z,22.50
2018-05-31T19:33:49.599Z,22.40
2018-05-31T19:36:24.469Z,22.30
2018-05-31T19:38:52.734Z,22.30
2018-05-31T19:41:21.798Z,22.30
2018-05-31T19:43:55.504Z,22.30
2018-05-31T19:46:23.875Z,22.20
2018-05-31T19:48:52.265Z,22.20
2018-05-31T19:51:26.077Z,22.10
2018-05-31T19:53:54.335Z,22.00
2018-05-31T19:56:22.616Z,22.10
2018-05-31T19:58:56.455Z,22.00
2018-05-31T20:01:31.123Z,21.90
2018-05-31T20:03:59.374Z,21.90
2018-05-31T20:06:28.388Z,21.90
2018-05-31T20:08:56.784Z,21.80
2018-05-31T20:11:25.900Z,21.80
2018-05-31T20:13:54.917Z,21.80
2018-05-31T20:16:23.171Z,21.70
2018-05-31T20:18:51.404Z,21.70
2018-05-31T20:21:20.490Z,21.70
2018-05-31T20:23:49.502Z,21.70
2018-05-31T20:26:18.528Z,21.70
2018-05-31T20:28:46.798Z,21.60
2018-05-31T20:31:16.609Z,21.60
2018-05-31T20:33:46.400Z,21.60
2018-05-31T20:36:14.712Z,21.60
2018-05-31T20:38:43.086Z,21.60
2018-05-31T20:41:11.290Z,21.60
2018-05-31T20:43:40.341Z,21.60
2018-05-31T20:46:08.581Z,21.50
2018-05-31T20:48:36.858Z,21.60
2018-05-31T20:51:05.904Z,21.60
2018-05-31T20:53:34.131Z,21.60
2018-05-31T20:56:02.375Z,21.60
2018-05-31T20:58:31.403Z,21.60
2018-05-31T21:00:59.632Z,21.60
2018-05-31T21:03:27.853Z,21.60
2018-05-31T21:05:56.148Z,21.60
2018-05-31T21:08:25.173Z,21.60
2018-05-31T21:10:53.415Z,21.50
2018-05-31T21:13:21.680Z,21.60
2018-05-31T21:15:49.915Z,21.50
2018-05-31T21:18:18.900Z,21.50
2018-05-31T21:20:47.901Z,21.50
2018-05-31T21:23:16.964Z,21.50
2018-05-31T21:25:46.035Z,21.40
2018-05-31T21:28:15.156Z,21.50
2018-05-31T21:30:44.171Z,21.50
2018-05-31T21:33:13.188Z,21.60
2018-05-31T21:35:41.489Z,21.60
2018-05-31T21:38:09.694Z,21.60
2018-05-31T21:40:38.706Z,21.70
2018-05-31T21:43:06.956Z,21.60
2018-05-31T21:45:35.190Z,21.60
2018-05-31T21:48:03.426Z,21.60
2018-05-31T21:50:31.680Z,21.60
2018-05-31T21:52:59.892Z,21.60
2018-05-31T21:55:28.201Z,21.60
2018-05-31T21:57:56.436Z,21.60
2018-05-31T22:03:31.343Z,21.50
2018-05-31T22:05:59.551Z,21.40
2018-05-31T22:08:27.867Z,21.10
2018-05-31T22:10:56.113Z,20.30
2018-05-31T22:13:25.876Z,18.20
2018-05-31T22:15:54.119Z,18.20
2018-05-31T22:20:51.957Z,17.00
2018-05-31T22:23:20.210Z,16.80
2018-05-31T22:25:48.447Z,16.60
2018-05-31T22:28:16.652Z,16.50
2018-05-31T22:30:44.951Z,16.30
2018-05-31T22:33:13.163Z,16.30
2018-05-31T22:35:41.460Z,16.10
2018-05-31T22:38:09.690Z,16.10
2018-05-31T22:40:37.943Z,16.00
2018-05-31T22:43:07.700Z,15.90
2018-05-31T22:45:35.998Z,15.90
2018-05-31T22:48:04.231Z,15.90
2018-05-31T22:50:32.475Z,15.80
2018-05-31T22:53:01.471Z,15.80
2018-05-31T22:55:30.495Z,15.80
2018-05-31T22:57:58.730Z,15.80
2018-05-31T23:00:27.754Z,15.80
2018-05-31T23:02:56.058Z,15.70
2018-05-31T23:05:24.264Z,15.80
2018-05-31T23:07:52.495Z,15.70
2018-05-31T23:10:20.751Z,15.70
2018-05-31T23:12:48.991Z,15.70
2018-05-31T23:15:18.011Z,15.70
2018-05-31T23:17:46.245Z,15.60
2018-05-31T23:20:14.512Z,15.70
2018-05-31T23:22:43.883Z,15.60
2018-05-31T23:25:12.903Z,15.70
2018-05-31T23:27:42.251Z,15.70
2018-05-31T23:30:11.319Z,15.70
2018-05-31T23:32:40.327Z,15.70
2018-05-31T23:35:09.343Z,15.70
2018-05-31T23:37:37.578Z,15.60
2018-05-31T23:40:05.827Z,15.70
2018-05-31T23:42:34.068Z,15.70
2018-05-31T23:45:02.331Z,15.70
2018-05-31T23:47:30.615Z,15.70
2018-05-31T23:49:59.570Z,15.60
2018-05-31T23:52:27.819Z,15.50
2018-05-31T23:54:56.828Z,15.50
2018-05-31T23:57:25.083Z,15.50
2018-05-31T23:59:53.322Z,15.50
